sensor_id;sensor_type;location;lat;lon;timestamp;temperature;humidity
75964;DHT22;65820;44.726;37.764;2023-02-22T00:14:18;17.35;53.27
75964;DHT22;65820;44.726;37.764;2023-02-22T00:15:23;17.36;53.23
75964;DHT22;65820;44.726;37.764;2023-02-22T00:16:27;17.34;53.27
75964;DHT22;65820;44.726;37.764;2023-02-22T00:18:18;17.34;53.28
75964;DHT22;65820;44.726;37.764;2023-02-22T00:19:20;17.35;53.28
75964;DHT22;65820;44.726;37.764;2023-02-22T00:20:22;17.35;53.37
75964;DHT22;65820;44.726;37.764;2023-02-22T00:22:11;17.36;53.28
75964;DHT22;65820;44.726;37.764;2023-02-22T00:34:18;17.37;53.48
75964;DHT22;65820;44.726;37.764;2023-02-22T00:35:22;17.39;53.56
75964;DHT22;65820;44.726;37.764;2023-02-22T00:36:26;17.38;53.52
75964;DHT22;65820;44.726;37.764;2023-02-22T00:37:28;17.40;53.49
75964;DHT22;65820;44.726;37.764;2023-02-22T00:38:31;17.39;53.47
75964;DHT22;65820;44.726;37.764;2023-02-22T00:39:33;17.40;53.46
75964;DHT22;65820;44.726;37.764;2023-02-22T00:40:34;17.39;53.46
75964;DHT22;65820;44.726;37.764;2023-02-22T00:43:16;17.43;53.50
75964;DHT22;65820;44.726;37.764;2023-02-22T00:44:17;17.44;53.43
75964;DHT22;65820;44.726;37.764;2023-02-22T00:47:19;17.45;53.45
75964;DHT22;65820;44.726;37.764;2023-02-22T00:54:55;17.46;53.48
75964;DHT22;65820;44.726;37.764;2023-02-22T00:57:01;17.47;53.34
75964;DHT22;65820;44.726;37.764;2023-02-22T00:59:27;17.46;53.41
75964;DHT22;65820;44.726;37.764;2023-02-22T01:02:18;17.43;52.78
75964;DHT22;65820;44.726;37.764;2023-02-22T01:03:21;17.43;52.35
75964;DHT22;65820;44.726;37.764;2023-02-22T01:12:40;17.24;52.38
75964;DHT22;65820;44.726;37.764;2023-02-22T01:13:41;17.22;52.53
75964;DHT22;65820;44.726;37.764;2023-02-22T01:23:46;17.09;53.27
75964;DHT22;65820;44.726;37.764;2023-02-22T01:24:48;17.08;53.23
75964;DHT22;65820;44.726;37.764;2023-02-22T01:27:50;17.06;53.36
75964;DHT22;65820;44.726;37.764;2023-02-22T01:28:52;17.05;53.41
75964;DHT22;65820;44.726;37.764;2023-02-22T01:29:53;17.05;53.43
75964;DHT22;65820;44.726;37.764;2023-02-22T01:44:33;16.96;53.78
75964;DHT22;65820;44.726;37.764;2023-02-22T01:45:43;16.96;53.76
75964;DHT22;65820;44.726;37.764;2023-02-22T01:46:45;16.96;54.07
75964;DHT22;65820;44.726;37.764;2023-02-22T01:47:46;16.94;53.86
75964;DHT22;65820;44.726;37.764;2023-02-22T01:51:24;16.94;53.94
75964;DHT22;65820;44.726;37.764;2023-02-22T01:52:27;16.93;53.81
75964;DHT22;65820;44.726;37.764;2023-02-22T01:53:34;16.92;53.94
75964;DHT22;65820;44.726;37.764;2023-02-22T01:55:01;16.93;53.91
75964;DHT22;65820;44.726;37.764;2023-02-22T01:56:04;16.92;53.90
75964;DHT22;65820;44.726;37.764;2023-02-22T01:59:54;16.92;54.18
75964;DHT22;65820;44.726;37.764;2023-02-22T02:00:57;16.92;53.95
75964;DHT22;65820;44.726;37.764;2023-02-22T02:05:51;16.91;53.92
75964;DHT22;65820;44.726;37.764;2023-02-22T02:07:00;16.90;53.83
75964;DHT22;65820;44.726;37.764;2023-02-22T02:08:15;16.90;53.86
75964;DHT22;65820;44.726;37.764;2023-02-22T02:09:29;16.89;53.86
75964;DHT22;65820;44.726;37.764;2023-02-22T02:10:33;16.88;53.84
75964;DHT22;65820;44.726;37.764;2023-02-22T02:11:35;16.87;53.86
75964;DHT22;65820;44.726;37.764;2023-02-22T02:12:44;16.86;53.88
75964;DHT22;65820;44.726;37.764;2023-02-22T02:13:49;16.86;53.86
75964;DHT22;65820;44.726;37.764;2023-02-22T02:14:52;16.87;53.95
75964;DHT22;65820;44.726;37.764;2023-02-22T02:15:55;16.86;53.93
75964;DHT22;65820;44.726;37.764;2023-02-22T02:16:57;16.87;53.85
75964;DHT22;65820;44.726;37.764;2023-02-22T02:18:04;16.86;53.88
75964;DHT22;65820;44.726;37.764;2023-02-22T02:20:37;16.86;53.91
75964;DHT22;65820;44.726;37.764;2023-02-22T02:34:34;16.80;54.04
75964;DHT22;65820;44.726;37.764;2023-02-22T02:35:49;16.79;54.01
75964;DHT22;65820;44.726;37.764;2023-02-22T02:37:24;16.79;53.98
75964;DHT22;65820;44.726;37.764;2023-02-22T02:38:38;16.80;54.01
75964;DHT22;65820;44.726;37.764;2023-02-22T02:42:15;16.79;53.96
75964;DHT22;65820;44.726;37.764;2023-02-22T02:43:30;16.78;54.00
75964;DHT22;65820;44.726;37.764;2023-02-22T02:44:36;16.78;53.96
75964;DHT22;65820;44.726;37.764;2023-02-22T02:45:54;16.78;53.98
75964;DHT22;65820;44.726;37.764;2023-02-22T02:47:04;16.78;53.98
75964;DHT22;65820;44.726;37.764;2023-02-22T02:54:54;16.77;53.97
75964;DHT22;65820;44.726;37.764;2023-02-22T02:57:21;16.75;54.01
75964;DHT22;65820;44.726;37.764;2023-02-22T02:58:25;16.74;53.99
75964;DHT22;65820;44.726;37.764;2023-02-22T02:59:31;16.74;54.00
75964;DHT22;65820;44.726;37.764;2023-02-22T03:00:36;16.75;54.04
75964;DHT22;65820;44.726;37.764;2023-02-22T03:04:18;16.73;54.03
75964;DHT22;65820;44.726;37.764;2023-02-22T03:17:53;16.71;54.04
75964;DHT22;65820;44.726;37.764;2023-02-22T03:20:30;16.70;54.00
75964;DHT22;65820;44.726;37.764;2023-02-22T03:21:44;16.70;54.07
75964;DHT22;65820;44.726;37.764;2023-02-22T03:23:52;16.70;54.01
75964;DHT22;65820;44.726;37.764;2023-02-22T03:24:54;16.70;54.08
75964;DHT22;65820;44.726;37.764;2023-02-22T03:26:05;16.70;54.07
75964;DHT22;65820;44.726;37.764;2023-02-22T03:27:56;16.70;54.10
75964;DHT22;65820;44.726;37.764;2023-02-22T03:28:40;16.71;54.05
75964;DHT22;65820;44.726;37.764;2023-02-22T03:29:45;16.70;54.07
75964;DHT22;65820;44.726;37.764;2023-02-22T03:30:57;16.71;54.06
75964;DHT22;65820;44.726;37.764;2023-02-22T03:32:02;16.70;54.01
75964;DHT22;65820;44.726;37.764;2023-02-22T03:33:14;16.71;54.02
75964;DHT22;65820;44.726;37.764;2023-02-22T03:34:28;16.70;54.00
75964;DHT22;65820;44.726;37.764;2023-02-22T03:35:34;16.71;54.04
75964;DHT22;65820;44.726;37.764;2023-02-22T03:36:43;16.70;54.01
75964;DHT22;65820;44.726;37.764;2023-02-22T03:37:53;16.70;54.03
75964;DHT22;65820;44.726;37.764;2023-02-22T03:40:24;16.70;54.04
75964;DHT22;65820;44.726;37.764;2023-02-22T03:41:30;16.72;54.05
75964;DHT22;65820;44.726;37.764;2023-02-22T03:42:36;16.70;54.04
75964;DHT22;65820;44.726;37.764;2023-02-22T03:43:46;16.71;54.03
75964;DHT22;65820;44.726;37.764;2023-02-22T03:44:52;16.69;54.04
75964;DHT22;65820;44.726;37.764;2023-02-22T03:45:56;16.70;54.10
75964;DHT22;65820;44.726;37.764;2023-02-22T03:47:01;16.71;54.04
75964;DHT22;65820;44.726;37.764;2023-02-22T03:49:44;16.71;54.15
75964;DHT22;65820;44.726;37.764;2023-02-22T03:50:49;16.72;54.17
75964;DHT22;65820;44.726;37.764;2023-02-22T03:51:51;16.72;54.10
75964;DHT22;65820;44.726;37.764;2023-02-22T03:52:53;16.72;54.10
75964;DHT22;65820;44.726;37.764;2023-02-22T03:54:57;16.71;53.99
75964;DHT22;65820;44.726;37.764;2023-02-22T03:55:59;16.71;53.97
75964;DHT22;65820;44.726;37.764;2023-02-22T03:57:14;16.70;53.94
75964;DHT22;65820;44.726;37.764;2023-02-22T03:58:20;16.70;53.94
75964;DHT22;65820;44.726;37.764;2023-02-22T03:59:24;16.69;54.01
75964;DHT22;65820;44.726;37.764;2023-02-22T04:00:31;16.70;53.98
75964;DHT22;65820;44.726;37.764;2023-02-22T04:01:33;16.69;53.97
75964;DHT22;65820;44.726;37.764;2023-02-22T04:03:22;16.67;54.03
75964;DHT22;65820;44.726;37.764;2023-02-22T04:04:25;16.66;54.05
75964;DHT22;65820;44.726;37.764;2023-02-22T04:05:27;16.67;54.08
75964;DHT22;65820;44.726;37.764;2023-02-22T04:06:30;16.65;54.15
75964;DHT22;65820;44.726;37.764;2023-02-22T04:07:34;16.67;54.71
75964;DHT22;65820;44.726;37.764;2023-02-22T04:08:35;16.70;54.62
75964;DHT22;65820;44.726;37.764;2023-02-22T04:09:37;16.72;54.70
75964;DHT22;65820;44.726;37.764;2023-02-22T04:11:33;16.74;54.71
75964;DHT22;65820;44.726;37.764;2023-02-22T04:12:35;16.78;54.70
75964;DHT22;65820;44.726;37.764;2023-02-22T04:13:39;16.79;54.68
75964;DHT22;65820;44.726;37.764;2023-02-22T04:17:22;16.89;54.54
75964;DHT22;65820;44.726;37.764;2023-02-22T04:18:24;16.90;54.56
75964;DHT22;65820;44.726;37.764;2023-02-22T04:19:26;16.90;54.59
75964;DHT22;65820;44.726;37.764;2023-02-22T04:20:28;16.93;54.53
75964;DHT22;65820;44.726;37.764;2023-02-22T04:21:32;16.95;54.55
75964;DHT22;65820;44.726;37.764;2023-02-22T04:22:40;16.98;54.71
75964;DHT22;65820;44.726;37.764;2023-02-22T04:23:41;16.99;54.81
75964;DHT22;65820;44.726;37.764;2023-02-22T04:24:43;17.01;54.82
75964;DHT22;65820;44.726;37.764;2023-02-22T04:25:45;17.03;54.81
75964;DHT22;65820;44.726;37.764;2023-02-22T04:26:50;17.04;54.96
75964;DHT22;65820;44.726;37.764;2023-02-22T04:27:53;17.05;54.81
75964;DHT22;65820;44.726;37.764;2023-02-22T04:29:03;17.07;54.86
75964;DHT22;65820;44.726;37.764;2023-02-22T04:30:11;17.09;55.01
75964;DHT22;65820;44.726;37.764;2023-02-22T04:31:14;17.10;54.84
75964;DHT22;65820;44.726;37.764;2023-02-22T04:32:15;17.13;54.81
75964;DHT22;65820;44.726;37.764;2023-02-22T04:33:17;17.14;54.75
75964;DHT22;65820;44.726;37.764;2023-02-22T04:34:18;17.17;54.30
75964;DHT22;65820;44.726;37.764;2023-02-22T04:35:20;17.17;54.43
75964;DHT22;65820;44.726;37.764;2023-02-22T04:36:22;17.19;54.46
75964;DHT22;65820;44.726;37.764;2023-02-22T04:37:23;17.19;54.68
75964;DHT22;65820;44.726;37.764;2023-02-22T04:38:26;17.20;55.09
75964;DHT22;65820;44.726;37.764;2023-02-22T04:39:30;17.22;55.13
75964;DHT22;65820;44.726;37.764;2023-02-22T04:40:31;17.23;54.75
75964;DHT22;65820;44.726;37.764;2023-02-22T04:41:33;17.24;55.00
75964;DHT22;65820;44.726;37.764;2023-02-22T04:42:36;17.25;55.09
75964;DHT22;65820;44.726;37.764;2023-02-22T04:43:38;17.26;54.87
75964;DHT22;65820;44.726;37.764;2023-02-22T04:44:49;17.28;54.84
75964;DHT22;65820;44.726;37.764;2023-02-22T04:45:52;17.28;54.94
75964;DHT22;65820;44.726;37.764;2023-02-22T04:46:54;17.29;54.84
75964;DHT22;65820;44.726;37.764;2023-02-22T04:47:57;17.30;54.78
75964;DHT22;65820;44.726;37.764;2023-02-22T04:48:59;17.32;54.81
75964;DHT22;65820;44.726;37.764;2023-02-22T04:50:05;17.31;54.61
75964;DHT22;65820;44.726;37.764;2023-02-22T04:51:55;17.32;54.70
75964;DHT22;65820;44.726;37.764;2023-02-22T04:53:01;17.32;54.68
75964;DHT22;65820;44.726;37.764;2023-02-22T04:54:03;17.32;54.60
75964;DHT22;65820;44.726;37.764;2023-02-22T04:55:07;17.32;54.55
75964;DHT22;65820;44.726;37.764;2023-02-22T04:56:11;17.34;54.54
75964;DHT22;65820;44.726;37.764;2023-02-22T04:57:13;17.34;54.56
75964;DHT22;65820;44.726;37.764;2023-02-22T04:58:14;17.34;54.57
75964;DHT22;65820;44.726;37.764;2023-02-22T04:59:16;17.34;54.47
75964;DHT22;65820;44.726;37.764;2023-02-22T05:00:20;17.35;54.41
75964;DHT22;65820;44.726;37.764;2023-02-22T05:01:31;17.35;54.48
75964;DHT22;65820;44.726;37.764;2023-02-22T05:02:33;17.36;54.38
75964;DHT22;65820;44.726;37.764;2023-02-22T05:03:37;17.35;54.48
75964;DHT22;65820;44.726;37.764;2023-02-22T05:04:39;17.36;54.41
75964;DHT22;65820;44.726;37.764;2023-02-22T05:05:41;17.36;54.37
75964;DHT22;65820;44.726;37.764;2023-02-22T05:06:42;17.39;54.40
75964;DHT22;65820;44.726;37.764;2023-02-22T05:07:44;17.38;54.33
75964;DHT22;65820;44.726;37.764;2023-02-22T05:08:45;17.37;54.39
75964;DHT22;65820;44.726;37.764;2023-02-22T05:09:46;17.38;54.32
75964;DHT22;65820;44.726;37.764;2023-02-22T05:10:48;17.38;54.37
75964;DHT22;65820;44.726;37.764;2023-02-22T05:11:49;17.38;54.35
75964;DHT22;65820;44.726;37.764;2023-02-22T05:12:51;17.39;54.36
75964;DHT22;65820;44.726;37.764;2023-02-22T05:13:53;17.40;54.25
75964;DHT22;65820;44.726;37.764;2023-02-22T05:14:54;17.39;54.26
75964;DHT22;65820;44.726;37.764;2023-02-22T05:15:56;17.40;54.21
75964;DHT22;65820;44.726;37.764;2023-02-22T05:16:58;17.40;54.31
75964;DHT22;65820;44.726;37.764;2023-02-22T05:18:00;17.41;54.17
75964;DHT22;65820;44.726;37.764;2023-02-22T05:19:02;17.41;54.26
75964;DHT22;65820;44.726;37.764;2023-02-22T05:20:04;17.41;54.26
75964;DHT22;65820;44.726;37.764;2023-02-22T05:21:06;17.43;54.23
75964;DHT22;65820;44.726;37.764;2023-02-22T05:22:08;17.43;54.29
75964;DHT22;65820;44.726;37.764;2023-02-22T05:23:09;17.41;54.20
75964;DHT22;65820;44.726;37.764;2023-02-22T05:24:11;17.44;54.20
75964;DHT22;65820;44.726;37.764;2023-02-22T05:25:12;17.43;54.24
75964;DHT22;65820;44.726;37.764;2023-02-22T05:26:14;17.44;54.14
75964;DHT22;65820;44.726;37.764;2023-02-22T05:27:15;17.44;54.24
75964;DHT22;65820;44.726;37.764;2023-02-22T05:28:17;17.45;54.09
75964;DHT22;65820;44.726;37.764;2023-02-22T05:29:18;17.45;54.16
75964;DHT22;65820;44.726;37.764;2023-02-22T05:30:23;17.44;54.12
75964;DHT22;65820;44.726;37.764;2023-02-22T05:31:25;17.46;54.14
75964;DHT22;65820;44.726;37.764;2023-02-22T05:32:26;17.46;54.16
75964;DHT22;65820;44.726;37.764;2023-02-22T05:33:28;17.45;54.05
75964;DHT22;65820;44.726;37.764;2023-02-22T05:34:29;17.45;54.14
75964;DHT22;65820;44.726;37.764;2023-02-22T05:35:31;17.45;54.13
75964;DHT22;65820;44.726;37.764;2023-02-22T05:36:32;17.45;54.08
75964;DHT22;65820;44.726;37.764;2023-02-22T05:37:34;17.46;54.20
75964;DHT22;65820;44.726;37.764;2023-02-22T05:38:38;17.46;54.13
75964;DHT22;65820;44.726;37.764;2023-02-22T05:39:43;17.47;54.23
75964;DHT22;65820;44.726;37.764;2023-02-22T05:40:46;17.47;54.06
75964;DHT22;65820;44.726;37.764;2023-02-22T05:41:48;17.46;54.23
75964;DHT22;65820;44.726;37.764;2023-02-22T05:42:50;17.48;54.10
75964;DHT22;65820;44.726;37.764;2023-02-22T05:43:52;17.49;54.09
75964;DHT22;65820;44.726;37.764;2023-02-22T05:44:53;17.47;54.19
75964;DHT22;65820;44.726;37.764;2023-02-22T05:45:55;17.48;54.17
75964;DHT22;65820;44.726;37.764;2023-02-22T05:46:56;17.49;54.11
75964;DHT22;65820;44.726;37.764;2023-02-22T05:47:58;17.49;54.10
75964;DHT22;65820;44.726;37.764;2023-02-22T05:48:59;17.49;54.09
75964;DHT22;65820;44.726;37.764;2023-02-22T05:50:01;17.49;54.16
75964;DHT22;65820;44.726;37.764;2023-02-22T05:51:02;17.49;54.03
75964;DHT22;65820;44.726;37.764;2023-02-22T05:52:04;17.50;54.07
75964;DHT22;65820;44.726;37.764;2023-02-22T05:53:05;17.49;54.07
75964;DHT22;65820;44.726;37.764;2023-02-22T05:54:07;17.51;54.05
75964;DHT22;65820;44.726;37.764;2023-02-22T05:55:12;17.51;54.19
75964;DHT22;65820;44.726;37.764;2023-02-22T05:56:20;17.51;54.10
75964;DHT22;65820;44.726;37.764;2023-02-22T05:57:22;17.51;54.18
75964;DHT22;65820;44.726;37.764;2023-02-22T05:58:23;17.51;54.10
75964;DHT22;65820;44.726;37.764;2023-02-22T06:01:24;17.54;54.38
75964;DHT22;65820;44.726;37.764;2023-02-22T06:02:26;17.55;54.27
75964;DHT22;65820;44.726;37.764;2023-02-22T06:04:38;17.58;54.76
75964;DHT22;65820;44.726;37.764;2023-02-22T06:05:40;17.56;54.82
75964;DHT22;65820;44.726;37.764;2023-02-22T06:06:42;17.56;55.25
75964;DHT22;65820;44.726;37.764;2023-02-22T06:07:43;17.58;55.24
75964;DHT22;65820;44.726;37.764;2023-02-22T06:08:45;17.58;55.26
75964;DHT22;65820;44.726;37.764;2023-02-22T06:09:47;17.58;55.34
75964;DHT22;65820;44.726;37.764;2023-02-22T06:10:48;17.59;55.33
75964;DHT22;65820;44.726;37.764;2023-02-22T06:11:49;17.58;55.33
75964;DHT22;65820;44.726;37.764;2023-02-22T06:12:53;17.59;55.01
75964;DHT22;65820;44.726;37.764;2023-02-22T06:13:54;17.60;54.71
75964;DHT22;65820;44.726;37.764;2023-02-22T06:14:56;17.59;54.65
75964;DHT22;65820;44.726;37.764;2023-02-22T06:15:57;17.59;54.60
75964;DHT22;65820;44.726;37.764;2023-02-22T06:16:59;17.59;54.45
75964;DHT22;65820;44.726;37.764;2023-02-22T06:18:01;17.61;54.16
75964;DHT22;65820;44.726;37.764;2023-02-22T06:19:02;17.60;54.04
75964;DHT22;65820;44.726;37.764;2023-02-22T06:20:04;17.61;53.93
75964;DHT22;65820;44.726;37.764;2023-02-22T06:21:07;17.61;54.14
75964;DHT22;65820;44.726;37.764;2023-02-22T06:22:17;17.60;54.09
75964;DHT22;65820;44.726;37.764;2023-02-22T06:23:19;17.61;54.19
75964;DHT22;65820;44.726;37.764;2023-02-22T06:24:21;17.61;53.84
75964;DHT22;65820;44.726;37.764;2023-02-22T06:25:28;17.61;53.78
75964;DHT22;65820;44.726;37.764;2023-02-22T06:26:31;17.62;53.94
75964;DHT22;65820;44.726;37.764;2023-02-22T06:28:28;17.62;53.94
75964;DHT22;65820;44.726;37.764;2023-02-22T06:29:29;17.63;53.81
75964;DHT22;65820;44.726;37.764;2023-02-22T06:30:31;17.62;53.82
75964;DHT22;65820;44.726;37.764;2023-02-22T06:31:32;17.63;53.82
75964;DHT22;65820;44.726;37.764;2023-02-22T06:32:34;17.64;53.88
75964;DHT22;65820;44.726;37.764;2023-02-22T06:33:35;17.63;53.10
75964;DHT22;65820;44.726;37.764;2023-02-22T06:34:37;17.60;52.69
75964;DHT22;65820;44.726;37.764;2023-02-22T06:35:38;17.59;52.78
75964;DHT22;65820;44.726;37.764;2023-02-22T06:36:40;17.56;52.77
75964;DHT22;65820;44.726;37.764;2023-02-22T06:40:14;17.49;52.94
75964;DHT22;65820;44.726;37.764;2023-02-22T06:41:15;17.48;53.06
75964;DHT22;65820;44.726;37.764;2023-02-22T06:42:17;17.46;52.99
75964;DHT22;65820;44.726;37.764;2023-02-22T06:43:18;17.44;53.04
75964;DHT22;65820;44.726;37.764;2023-02-22T06:44:20;17.41;53.11
75964;DHT22;65820;44.726;37.764;2023-02-22T06:45:21;17.41;53.08
75964;DHT22;65820;44.726;37.764;2023-02-22T06:46:23;17.38;53.20
75964;DHT22;65820;44.726;37.764;2023-02-22T06:47:24;17.38;53.23
75964;DHT22;65820;44.726;37.764;2023-02-22T06:48:26;17.37;53.30
75964;DHT22;65820;44.726;37.764;2023-02-22T06:49:27;17.36;53.27
75964;DHT22;65820;44.726;37.764;2023-02-22T06:52:16;17.33;53.39
75964;DHT22;65820;44.726;37.764;2023-02-22T06:53:17;17.33;53.39
75964;DHT22;65820;44.726;37.764;2023-02-22T06:54:19;17.30;53.38
75964;DHT22;65820;44.726;37.764;2023-02-22T06:55:23;17.31;53.44
75964;DHT22;65820;44.726;37.764;2023-02-22T06:56:25;17.30;53.43
75964;DHT22;65820;44.726;37.764;2023-02-22T06:57:27;17.30;53.43
75964;DHT22;65820;44.726;37.764;2023-02-22T06:58:28;17.29;53.64
75964;DHT22;65820;44.726;37.764;2023-02-22T06:59:30;17.30;53.85
75964;DHT22;65820;44.726;37.764;2023-02-22T07:00:32;17.31;53.69
75964;DHT22;65820;44.726;37.764;2023-02-22T07:01:33;17.34;53.71
75964;DHT22;65820;44.726;37.764;2023-02-22T07:02:35;17.35;53.92
75964;DHT22;65820;44.726;37.764;2023-02-22T07:03:37;17.36;53.90
75964;DHT22;65820;44.726;37.764;2023-02-22T07:04:39;17.37;54.10
75964;DHT22;65820;44.726;37.764;2023-02-22T07:05:41;17.37;53.74
75964;DHT22;65820;44.726;37.764;2023-02-22T07:06:46;17.40;53.98
75964;DHT22;65820;44.726;37.764;2023-02-22T07:07:49;17.43;53.90
75964;DHT22;65820;44.726;37.764;2023-02-22T07:10:28;17.44;53.97
75964;DHT22;65820;44.726;37.764;2023-02-22T07:11:29;17.44;53.77
75964;DHT22;65820;44.726;37.764;2023-02-22T07:12:31;17.44;53.68
75964;DHT22;65820;44.726;37.764;2023-02-22T07:15:12;17.43;53.84
75964;DHT22;65820;44.726;37.764;2023-02-22T07:16:14;17.43;53.83
75964;DHT22;65820;44.726;37.764;2023-02-22T07:17:15;17.41;53.89
75964;DHT22;65820;44.726;37.764;2023-02-22T07:18:17;17.43;53.54
75964;DHT22;65820;44.726;37.764;2023-02-22T07:19:18;17.41;53.87
75964;DHT22;65820;44.726;37.764;2023-02-22T07:20:21;17.41;54.00
75964;DHT22;65820;44.726;37.764;2023-02-22T07:22:11;17.40;53.96
75964;DHT22;65820;44.726;37.764;2023-02-22T07:23:16;17.43;53.82
75964;DHT22;65820;44.726;37.764;2023-02-22T07:24:17;17.40;53.96
75964;DHT22;65820;44.726;37.764;2023-02-22T07:25:19;17.43;53.89
75964;DHT22;65820;44.726;37.764;2023-02-22T07:26:21;17.41;53.97
75964;DHT22;65820;44.726;37.764;2023-02-22T07:27:23;17.41;53.91
75964;DHT22;65820;44.726;37.764;2023-02-22T07:28:24;17.41;53.94
75964;DHT22;65820;44.726;37.764;2023-02-22T07:29:26;17.41;53.81
75964;DHT22;65820;44.726;37.764;2023-02-22T07:30:30;17.41;53.83
75964;DHT22;65820;44.726;37.764;2023-02-22T07:31:36;17.43;53.94
75964;DHT22;65820;44.726;37.764;2023-02-22T07:32:38;17.43;53.84
75964;DHT22;65820;44.726;37.764;2023-02-22T07:33:39;17.41;53.87
75964;DHT22;65820;44.726;37.764;2023-02-22T07:34:41;17.41;53.99
75964;DHT22;65820;44.726;37.764;2023-02-22T07:35:48;17.41;53.88
75964;DHT22;65820;44.726;37.764;2023-02-22T07:36:49;17.43;53.86
75964;DHT22;65820;44.726;37.764;2023-02-22T07:37:51;17.41;53.87
75964;DHT22;65820;44.726;37.764;2023-02-22T07:38:53;17.43;53.62
75964;DHT22;65820;44.726;37.764;2023-02-22T07:39:54;17.43;53.88
75964;DHT22;65820;44.726;37.764;2023-02-22T07:40:56;17.44;53.80
75964;DHT22;65820;44.726;37.764;2023-02-22T07:43:52;17.43;53.94
75964;DHT22;65820;44.726;37.764;2023-02-22T07:44:54;17.41;53.91
75964;DHT22;65820;44.726;37.764;2023-02-22T07:45:56;17.43;53.94
75964;DHT22;65820;44.726;37.764;2023-02-22T07:46:59;17.43;53.70
75964;DHT22;65820;44.726;37.764;2023-02-22T07:48:03;17.41;53.84
75964;DHT22;65820;44.726;37.764;2023-02-22T07:56:27;17.41;54.01
75964;DHT22;65820;44.726;37.764;2023-02-22T07:57:28;17.39;53.96
75964;DHT22;65820;44.726;37.764;2023-02-22T07:58:31;17.39;53.99
75964;DHT22;65820;44.726;37.764;2023-02-22T07:59:32;17.40;54.00
75964;DHT22;65820;44.726;37.764;2023-02-22T08:00:37;17.40;54.08
75964;DHT22;65820;44.726;37.764;2023-02-22T08:01:39;17.40;54.08
75964;DHT22;65820;44.726;37.764;2023-02-22T08:02:42;17.39;54.03
75964;DHT22;65820;44.726;37.764;2023-02-22T08:03:43;17.39;53.99
75964;DHT22;65820;44.726;37.764;2023-02-22T08:04:47;17.39;54.12
75964;DHT22;65820;44.726;37.764;2023-02-22T08:05:54;17.40;54.01
75964;DHT22;65820;44.726;37.764;2023-02-22T08:06:56;17.40;54.02
75964;DHT22;65820;44.726;37.764;2023-02-22T08:07:57;17.43;54.08
75964;DHT22;65820;44.726;37.764;2023-02-22T08:08:58;17.41;54.04
75964;DHT22;65820;44.726;37.764;2023-02-22T08:10:00;17.43;53.84
75964;DHT22;65820;44.726;37.764;2023-02-22T08:11:06;17.41;53.97
75964;DHT22;65820;44.726;37.764;2023-02-22T08:12:07;17.41;54.04
75964;DHT22;65820;44.726;37.764;2023-02-22T08:13:09;17.43;53.94
75964;DHT22;65820;44.726;37.764;2023-02-22T08:14:14;17.43;54.04
75964;DHT22;65820;44.726;37.764;2023-02-22T08:15:25;17.43;53.96
75964;DHT22;65820;44.726;37.764;2023-02-22T08:16:28;17.43;53.97
75964;DHT22;65820;44.726;37.764;2023-02-22T08:17:30;17.41;53.94
75964;DHT22;65820;44.726;37.764;2023-02-22T08:18:31;17.43;54.05
75964;DHT22;65820;44.726;37.764;2023-02-22T08:19:33;17.43;53.97
75964;DHT22;65820;44.726;37.764;2023-02-22T08:20:36;17.44;53.93
75964;DHT22;65820;44.726;37.764;2023-02-22T08:22:33;17.45;53.81
75964;DHT22;65820;44.726;37.764;2023-02-22T08:23:34;17.44;53.95
75964;DHT22;65820;44.726;37.764;2023-02-22T08:24:36;17.45;53.46
75964;DHT22;65820;44.726;37.764;2023-02-22T08:25:38;17.46;54.01
75964;DHT22;65820;44.726;37.764;2023-02-22T08:26:45;17.48;54.10
75964;DHT22;65820;44.726;37.764;2023-02-22T08:27:48;17.49;53.93
75964;DHT22;65820;44.726;37.764;2023-02-22T08:28:49;17.51;53.93
75964;DHT22;65820;44.726;37.764;2023-02-22T08:29:51;17.52;53.61
75964;DHT22;65820;44.726;37.764;2023-02-22T08:30:53;17.54;53.93
75964;DHT22;65820;44.726;37.764;2023-02-22T08:31:55;17.55;53.84
75964;DHT22;65820;44.726;37.764;2023-02-22T08:32:57;17.58;53.99
75964;DHT22;65820;44.726;37.764;2023-02-22T08:33:59;17.59;53.88
75964;DHT22;65820;44.726;37.764;2023-02-22T08:35:49;17.61;53.99
75964;DHT22;65820;44.726;37.764;2023-02-22T08:36:51;17.62;53.89
75964;DHT22;65820;44.726;37.764;2023-02-22T08:37:56;17.64;53.65
75964;DHT22;65820;44.726;37.764;2023-02-22T08:38:59;17.64;53.48
75964;DHT22;65820;44.726;37.764;2023-02-22T08:41:40;17.67;53.44
75964;DHT22;65820;44.726;37.764;2023-02-22T08:43:37;17.67;53.33
75964;DHT22;65820;44.726;37.764;2023-02-22T08:44:39;17.69;53.41
75964;DHT22;65820;44.726;37.764;2023-02-22T08:45:41;17.69;53.45
75964;DHT22;65820;44.726;37.764;2023-02-22T08:46:43;17.70;53.26
75964;DHT22;65820;44.726;37.764;2023-02-22T08:47:45;17.72;53.33
75964;DHT22;65820;44.726;37.764;2023-02-22T08:49:34;17.73;53.25
75964;DHT22;65820;44.726;37.764;2023-02-22T08:50:36;17.73;53.24
75964;DHT22;65820;44.726;37.764;2023-02-22T08:51:38;17.75;53.15
75964;DHT22;65820;44.726;37.764;2023-02-22T08:52:39;17.75;53.12
75964;DHT22;65820;44.726;37.764;2023-02-22T08:53:41;17.77;53.03
75964;DHT22;65820;44.726;37.764;2023-02-22T08:54:44;17.76;53.07
75964;DHT22;65820;44.726;37.764;2023-02-22T08:55:45;17.76;53.04
75964;DHT22;65820;44.726;37.764;2023-02-22T08:56:47;17.78;52.97
75964;DHT22;65820;44.726;37.764;2023-02-22T08:57:49;17.78;52.91
75964;DHT22;65820;44.726;37.764;2023-02-22T08:58:50;17.79;52.89
75964;DHT22;65820;44.726;37.764;2023-02-22T08:59:52;17.79;52.89
75964;DHT22;65820;44.726;37.764;2023-02-22T09:00:53;17.79;52.81
75964;DHT22;65820;44.726;37.764;2023-02-22T09:01:55;17.81;52.78
75964;DHT22;65820;44.726;37.764;2023-02-22T09:02:56;17.80;52.78
75964;DHT22;65820;44.726;37.764;2023-02-22T09:03:58;17.81;52.71
75964;DHT22;65820;44.726;37.764;2023-02-22T09:04:59;17.84;52.68
75964;DHT22;65820;44.726;37.764;2023-02-22T09:06:01;17.84;52.61
75964;DHT22;65820;44.726;37.764;2023-02-22T09:07:03;17.84;52.62
75964;DHT22;65820;44.726;37.764;2023-02-22T09:08:05;17.85;52.59
75964;DHT22;65820;44.726;37.764;2023-02-22T09:09:06;17.85;52.56
75964;DHT22;65820;44.726;37.764;2023-02-22T09:10:13;17.85;52.45
75964;DHT22;65820;44.726;37.764;2023-02-22T09:11:15;17.85;52.46
75964;DHT22;65820;44.726;37.764;2023-02-22T09:12:17;17.85;52.15
75964;DHT22;65820;44.726;37.764;2023-02-22T09:13:18;17.84;52.41
75964;DHT22;65820;44.726;37.764;2023-02-22T09:14:20;17.82;51.98
75964;DHT22;65820;44.726;37.764;2023-02-22T09:16:09;17.77;51.91